Time;durP1;ratioP1;P1;durP2;ratioP2;P2;SDS_P1;SDS_P2;PMS_P1;PMS_P2;Temp;Humidity;BMP_temperature;BMP_pressure;BME280_temperature;BME280_humidity;BME280_pressure;Samples;Min_cycle;Max_cycle;Signal;HPM_P1;HPM_P2
2022/04/05 00:01:16;;;;;;;;;10.50;10.50;;;;;;;;2;234069142;234069142;-89
2022/04/05 00:10:17;;;;;;;;;6.50;6.50;;;;;;;;2;279080329;279080329;-89
2022/04/05 00:18:32;;;;;;;;;10.00;10.00;;;;;;;;2;234068041;234068041;-90
2022/04/05 00:27:33;;;;;;;;;6.00;6.00;;;;;;;;2;279080257;279080257;-89
2022/04/05 00:35:48;;;;;;;;;10.50;10.50;;;;;;;;2;234067611;234067611;-89
2022/04/05 00:44:49;;;;;;;;;8.00;8.00;;;;;;;;2;279078019;279078019;-87
2022/04/05 00:53:07;;;;;;;;;11.00;11.00;;;;;;;;2;234066432;234066432;-89
2022/04/05 01:02:09;;;;;;;;;14.00;14.00;;;;;;;;2;279081800;279081800;-88
2022/04/05 01:10:26;;;;;;;;;10.00;10.00;;;;;;;;2;234070338;234070338;-89
2022/04/05 01:19:27;;;;;;;;;4.00;4.00;;;;;;;;2;279081825;279081825;-88
2022/04/05 01:27:42;;;;;;;;;9.00;9.00;;;;;;;;2;234069179;234069179;-89
2022/04/05 01:36:43;;;;;;;;;8.00;8.00;;;;;;;;2;279080090;279080090;-89
2022/04/05 01:44:59;;;;;;;;;5.00;5.00;;;;;;;;2;234070101;234070101;-88
2022/04/05 01:54:02;;;;;;;;;11.00;11.00;;;;;;;;2;279081302;279081302;-89
2022/04/05 02:02:18;;;;;;;;;10.50;10.50;;;;;;;;2;234072665;234072665;-89
2022/04/05 02:11:18;;;;;;;;;7.00;5.50;;;;;;;;2;279082692;279082692;-88
2022/04/05 02:19:34;;;;;;;;;5.00;5.00;;;;;;;;2;234068527;234068527;-89
2022/04/05 02:28:34;;;;;;;;;8.50;8.50;;;;;;;;2;279081465;279081465;-88
2022/04/05 02:36:50;;;;;;;;;7.50;7.50;;;;;;;;2;234067948;234067948;-89
2022/04/05 02:45:51;;;;;;;;;10.00;10.00;;;;;;;;2;279082732;279082732;-89
2022/04/05 02:54:06;;;;;;;;;6.00;6.00;;;;;;;;2;234068341;234068341;-89
2022/04/05 03:03:06;;;;;;;;;9.50;8.00;;;;;;;;2;279080276;279080276;-89
2022/04/05 03:11:22;;;;;;;;;20.00;8.00;;;;;;;;2;234067647;234067647;-89
2022/04/05 03:20:22;;;;;;;;;6.50;6.50;;;;;;;;2;279079597;279079597;-89
2022/04/05 03:28:38;;;;;;;;;10.00;10.00;;;;;;;;2;234065934;234065934;-88
2022/04/05 03:37:38;;;;;;;;;21.00;12.00;;;;;;;;2;279078369;279078369;-88
2022/04/05 03:45:54;;;;;;;;;6.00;6.00;;;;;;;;2;234069963;234069963;-89
2022/04/05 03:54:55;;;;;;;;;11.50;11.50;;;;;;;;2;279078024;279078024;-89
2022/04/05 04:03:10;;;;;;;;;6.00;6.00;;;;;;;;2;234068721;234068721;-89
2022/04/05 04:12:10;;;;;;;;;8.00;8.00;;;;;;;;2;279078388;279078388;-89
2022/04/05 04:20:26;;;;;;;;;17.50;17.50;;;;;;;;2;234065874;234065874;-89
2022/04/05 04:29:26;;;;;;;;;10.00;10.00;;;;;;;;2;279081897;279081897;-89
2022/04/05 04:37:42;;;;;;;;;8.50;8.50;;;;;;;;2;234068752;234068752;-89
2022/04/05 04:46:43;;;;;;;;;4.00;4.00;;;;;;;;2;279079345;279079345;-89
2022/04/05 04:54:59;;;;;;;;;10.50;10.50;;;;;;;;2;234069910;234069910;-88
2022/04/05 05:03:59;;;;;;;;;7.50;7.50;;;;;;;;2;279082314;279082314;-89
2022/04/05 05:12:14;;;;;;;;;13.00;13.00;;;;;;;;2;234069801;234069801;-89
2022/04/05 05:21:15;;;;;;;;;5.50;5.50;;;;;;;;2;279080953;279080953;-89
2022/04/05 05:29:30;;;;;;;;;6.50;6.50;;;;;;;;2;234067452;234067452;-88
2022/04/05 05:38:30;;;;;;;;;5.00;5.00;;;;;;;;2;279078554;279078554;-88
2022/04/05 05:46:46;;;;;;;;;9.50;9.50;;;;;;;;2;234069592;234069592;-89
2022/04/05 05:55:48;;;;;;;;;11.50;11.50;;;;;;;;2;279080418;279080418;-88
2022/04/05 06:04:03;;;;;;;;;29.00;9.00;;;;;;;;2;234069390;234069390;-88
2022/04/05 06:13:04;;;;;;;;;9.00;9.00;;;;;;;;2;279079595;279079595;-87
2022/04/05 06:21:20;;;;;;;;;9.00;5.00;;;;;;;;2;234066810;234066810;-87
2022/04/05 06:30:20;;;;;;;;;10.00;7.00;;;;;;;;2;279079057;279079057;-88
2022/04/05 06:38:36;;;;;;;;;7.00;7.00;;;;;;;;2;234067672;234067672;-89
2022/04/05 06:47:37;;;;;;;;;4.50;4.50;;;;;;;;2;279082535;279082535;-89
2022/04/05 06:55:53;;;;;;;;;18.50;10.00;;;;;;;;2;234067113;234067113;-89
2022/04/05 07:04:53;;;;;;;;;4.00;4.00;;;;;;;;2;279078857;279078857;-88
2022/04/05 07:13:09;;;;;;;;;20.00;8.50;;;;;;;;2;234072799;234072799;-88
2022/04/05 07:22:09;;;;;;;;;18.50;7.00;;;;;;;;2;279083122;279083122;-81
2022/04/05 07:30:24;;;;;;;;;6.50;6.50;;;;;;;;2;234074886;234074886;-82
2022/04/05 07:39:25;;;;;;;;;7.50;7.50;;;;;;;;2;279085275;279085275;-81
2022/04/05 07:47:41;;;;;;;;;9.50;9.50;;;;;;;;2;234070946;234070946;-82
2022/04/05 07:56:41;;;;;;;;;7.50;7.50;;;;;;;;2;279083896;279083896;-81
2022/04/05 08:04:57;;;;;;;;;6.50;2.50;;;;;;;;2;234074041;234074041;-83
2022/04/05 08:13:57;;;;;;;;;28.50;5.00;;;;;;;;2;279092162;279092162;-86
2022/04/05 08:22:13;;;;;;;;;6.00;6.00;;;;;;;;2;234070617;234070617;-90
2022/04/05 08:31:16;;;;;;;;;7.00;7.00;;;;;;;;2;279082448;279082448;-90
2022/04/05 08:39:31;;;;;;;;;13.50;9.50;;;;;;;;2;234070345;234070345;-88
2022/04/05 08:48:34;;;;;;;;;11.00;11.00;;;;;;;;2;279084565;279084565;-89
2022/04/05 08:56:50;;;;;;;;;10.00;10.00;;;;;;;;2;234073631;234073631;-93
2022/04/05 09:05:50;;;;;;;;;5.00;5.00;;;;;;;;2;279087085;279087085;-89
2022/04/05 09:14:06;;;;;;;;;6.00;6.00;;;;;;;;2;234071716;234071716;-89
2022/04/05 09:23:22;;;;;;;;;11.00;11.00;;;;;;;;2;279084029;279084029;-89
2022/04/05 09:31:45;;;;;;;;;14.50;14.50;;;;;;;;2;234075458;234075458;-88
2022/04/05 09:44:05;;;;;;;;;10.00;10.00;;;;;;;;2;279081658;279081658;-88
2022/04/05 09:52:34;;;;;;;;;23.00;11.00;;;;;;;;2;234069530;234069530;-88
2022/04/05 10:01:36;;;;;;;;;17.50;17.50;;;;;;;;2;279084364;279084364;-89
2022/04/05 10:09:51;;;;;;;;;13.50;10.00;;;;;;;;2;234073950;234073950;-89
2022/04/05 10:18:53;;;;;;;;;16.00;13.00;;;;;;;;2;279082414;279082414;-89
2022/04/05 10:27:09;;;;;;;;;12.50;12.50;;;;;;;;2;234068226;234068226;-85
2022/04/05 10:36:09;;;;;;;;;20.00;20.00;;;;;;;;2;279080921;279080921;-89
2022/04/05 10:44:27;;;;;;;;;10.00;8.50;;;;;;;;2;234065511;234065511;-87
2022/04/05 10:53:32;;;;;;;;;6.00;6.00;;;;;;;;2;279081393;279081393;-87
2022/04/05 11:01:47;;;;;;;;;9.00;6.00;;;;;;;;2;234073998;234073998;-87
2022/04/05 11:10:50;;;;;;;;;19.00;7.50;;;;;;;;2;279088830;279088830;-89
2022/04/05 11:19:06;;;;;;;;;17.00;5.00;;;;;;;;2;234071642;234071642;-88
2022/04/05 11:28:10;;;;;;;;;5.50;5.50;;;;;;;;2;279088121;279088121;-95
2022/04/05 11:36:26;;;;;;;;;7.50;7.50;;;;;;;;2;234069218;234069218;-95
2022/04/05 11:45:26;;;;;;;;;23.00;11.00;;;;;;;;2;279079174;279079174;-95
2022/04/05 11:53:43;;;;;;;;;9.50;9.50;;;;;;;;2;234070847;234070847;-94
2022/04/05 12:02:44;;;;;;;;;10.00;10.00;;;;;;;;2;279081896;279081896;-93
2022/04/05 12:10:59;;;;;;;;;11.00;11.00;;;;;;;;2;234074480;234074480;-93
2022/04/05 12:20:02;;;;;;;;;8.50;8.50;;;;;;;;2;279086627;279086627;-94
2022/04/05 12:28:21;;;;;;;;;12.50;8.50;;;;;;;;2;234066048;234066048;-95
2022/04/05 12:37:22;;;;;;;;;5.00;5.00;;;;;;;;2;279079840;279079840;-93
2022/04/05 12:45:37;;;;;;;;;19.50;7.50;;;;;;;;2;234066425;234066425;-93
2022/04/05 12:54:58;;;;;;;;;13.00;4.00;;;;;;;;2;279078335;279078335;-92
2022/04/05 13:03:16;;;;;;;;;3.50;3.50;;;;;;;;2;234066414;234066414;-91
2022/04/05 13:12:17;;;;;;;;;11.50;11.50;;;;;;;;2;279078434;279078434;-91
2022/04/05 13:20:33;;;;;;;;;14.50;5.50;;;;;;;;2;234068004;234068004;-91
2022/04/05 13:29:34;;;;;;;;;17.50;5.50;;;;;;;;2;279078989;279078989;-92
2022/04/05 13:37:49;;;;;;;;;9.50;9.50;;;;;;;;2;234069455;234069455;-91
2022/04/05 13:46:50;;;;;;;;;11.00;11.00;;;;;;;;2;279083112;279083112;-91
2022/04/05 13:55:06;;;;;;;;;6.00;6.00;;;;;;;;2;234067546;234067546;-93
2022/04/05 14:04:06;;;;;;;;;5.00;5.00;;;;;;;;2;279081969;279081969;-92
2022/04/05 14:12:22;;;;;;;;;7.50;7.50;;;;;;;;2;234068394;234068394;-90
2022/04/05 14:21:24;;;;;;;;;5.00;5.00;;;;;;;;2;279084065;279084065;-92
2022/04/05 14:29:40;;;;;;;;;5.50;5.50;;;;;;;;2;234069958;234069958;-91
2022/04/05 14:38:41;;;;;;;;;10.00;10.00;;;;;;;;2;279085781;279085781;-91
2022/04/05 14:46:58;;;;;;;;;5.00;5.00;;;;;;;;2;234071468;234071468;-92
2022/04/05 14:55:59;;;;;;;;;10.50;3.50;;;;;;;;2;279081878;279081878;-90
2022/04/05 15:04:14;;;;;;;;;4.50;4.50;;;;;;;;2;234069875;234069875;-90
2022/04/05 15:13:15;;;;;;;;;6.00;6.00;;;;;;;;2;279086115;279086115;-91
2022/04/05 15:21:30;;;;;;;;;7.00;7.00;;;;;;;;2;234070137;234070137;-92
2022/04/05 15:30:32;;;;;;;;;30.00;9.50;;;;;;;;2;279080875;279080875;-91
2022/04/05 15:38:48;;;;;;;;;7.00;7.00;;;;;;;;2;234071631;234071631;-89
2022/04/05 15:47:49;;;;;;;;;4.50;4.50;;;;;;;;2;279083253;279083253;-88
2022/04/05 15:56:04;;;;;;;;;7.00;7.00;;;;;;;;2;234069926;234069926;-89
2022/04/05 16:05:06;;;;;;;;;7.50;7.50;;;;;;;;2;279083558;279083558;-89
2022/04/05 16:13:21;;;;;;;;;9.00;9.00;;;;;;;;2;234072069;234072069;-88
2022/04/05 16:22:22;;;;;;;;;23.00;11.00;;;;;;;;2;279083871;279083871;-88
2022/04/05 16:30:38;;;;;;;;;5.50;5.50;;;;;;;;2;234068658;234068658;-89
2022/04/05 16:39:38;;;;;;;;;14.00;10.00;;;;;;;;2;279084355;279084355;-88
2022/04/05 16:47:54;;;;;;;;;7.00;7.00;;;;;;;;2;234068739;234068739;-90
2022/04/05 16:56:54;;;;;;;;;5.50;5.50;;;;;;;;2;279080575;279080575;-88
2022/04/05 17:05:09;;;;;;;;;11.00;11.00;;;;;;;;2;234070503;234070503;-89
2022/04/05 17:14:10;;;;;;;;;5.00;5.00;;;;;;;;2;279082558;279082558;-87
2022/04/05 17:22:25;;;;;;;;;10.50;9.00;;;;;;;;2;234072607;234072607;-88
2022/04/05 17:31:26;;;;;;;;;7.00;7.00;;;;;;;;2;279081505;279081505;-90
2022/04/05 17:39:42;;;;;;;;;6.50;6.50;;;;;;;;2;234070023;234070023;-88
2022/04/05 17:48:44;;;;;;;;;7.50;7.50;;;;;;;;2;279083041;279083041;-88
2022/04/05 17:57:00;;;;;;;;;16.50;8.50;;;;;;;;2;234071263;234071263;-88
2022/04/05 18:06:00;;;;;;;;;8.50;4.50;;;;;;;;2;279082483;279082483;-90
2022/04/05 18:14:17;;;;;;;;;7.50;7.50;;;;;;;;2;234076401;234076401;-89
2022/04/05 18:23:17;;;;;;;;;20.00;8.00;;;;;;;;2;279086696;279086696;-89
2022/04/05 18:31:33;;;;;;;;;6.50;6.50;;;;;;;;2;234073391;234073391;-91
2022/04/05 18:40:37;;;;;;;;;5.00;5.00;;;;;;;;2;279083277;279083277;-87
2022/04/05 18:48:53;;;;;;;;;6.50;6.50;;;;;;;;2;234068402;234068402;-89
2022/04/05 18:57:56;;;;;;;;;5.50;5.50;;;;;;;;2;279078938;279078938;-89
2022/04/05 19:06:12;;;;;;;;;6.00;4.50;;;;;;;;2;234065810;234065810;-89
2022/04/05 19:15:12;;;;;;;;;8.50;8.50;;;;;;;;2;279077263;279077263;-92
2022/04/05 19:23:28;;;;;;;;;6.00;6.00;;;;;;;;2;234067229;234067229;-92
2022/04/05 19:32:29;;;;;;;;;31.50;11.50;;;;;;;;2;279077178;279077178;-92
2022/04/05 19:40:45;;;;;;;;;9.50;9.50;;;;;;;;2;234068886;234068886;-90
2022/04/05 19:49:45;;;;;;;;;7.50;7.50;;;;;;;;2;279081785;279081785;-90
2022/04/05 19:58:02;;;;;;;;;9.00;6.00;;;;;;;;2;234069751;234069751;-86
2022/04/05 20:07:03;;;;;;;;;7.00;7.00;;;;;;;;2;279084981;279084981;-87
2022/04/05 20:15:18;;;;;;;;;8.00;8.00;;;;;;;;2;234070835;234070835;-85
2022/04/05 20:24:18;;;;;;;;;8.50;8.50;;;;;;;;2;279087423;279087423;-85
2022/04/05 20:32:34;;;;;;;;;7.50;3.50;;;;;;;;2;234072287;234072287;-84
2022/04/05 20:41:34;;;;;;;;;8.00;5.50;;;;;;;;2;279082154;279082154;-83
2022/04/05 20:49:50;;;;;;;;;18.50;18.50;;;;;;;;2;234069606;234069606;-81
2022/04/05 20:58:50;;;;;;;;;10.50;10.50;;;;;;;;2;279083811;279083811;-83
2022/04/05 21:07:06;;;;;;;;;5.00;5.00;;;;;;;;2;234070270;234070270;-81
2022/04/05 21:16:08;;;;;;;;;4.50;3.00;;;;;;;;2;279086535;279086535;-82
2022/04/05 21:24:24;;;;;;;;;3.50;3.50;;;;;;;;2;234068613;234068613;-83
2022/04/05 21:33:25;;;;;;;;;11.00;8.50;;;;;;;;2;279080351;279080351;-83
2022/04/05 21:41:40;;;;;;;;;3.50;3.50;;;;;;;;2;234066881;234066881;-83
2022/04/05 21:50:40;;;;;;;;;9.00;5.00;;;;;;;;2;279076119;279076119;-82
2022/04/05 21:58:57;;;;;;;;;0.50;0.50;;;;;;;;2;234069040;234069040;-83
2022/04/05 22:07:57;;;;;;;;;7.00;3.00;;;;;;;;2;279083754;279083754;-83
2022/04/05 22:16:12;;;;;;;;;7.50;7.50;;;;;;;;2;234067700;234067700;-83
2022/04/05 22:25:13;;;;;;;;;17.00;6.00;;;;;;;;2;279082335;279082335;-82
2022/04/05 22:33:28;;;;;;;;;6.50;6.50;;;;;;;;2;234068122;234068122;-81
2022/04/05 22:42:29;;;;;;;;;7.50;3.50;;;;;;;;2;279074821;279074821;-82
2022/04/05 22:50:47;;;;;;;;;13.50;2.50;;;;;;;;2;234062686;234062686;-82
2022/04/05 22:59:47;;;;;;;;;5.00;5.00;;;;;;;;2;279079341;279079341;-81
2022/04/05 23:08:02;;;;;;;;;1.50;1.50;;;;;;;;2;234069752;234069752;-81
2022/04/05 23:17:03;;;;;;;;;4.00;4.00;;;;;;;;2;279082456;279082456;-82
2022/04/05 23:25:19;;;;;;;;;1.50;1.50;;;;;;;;2;234069182;234069182;-82
2022/04/05 23:34:19;;;;;;;;;2.00;2.00;;;;;;;;2;279076185;279076185;-82
2022/04/05 23:42:35;;;;;;;;;10.50;5.00;;;;;;;;2;234065512;234065512;-82
2022/04/05 23:51:35;;;;;;;;;1.00;1.00;;;;;;;;2;279074683;279074683;-82
2022/04/05 23:59:50;;;;;;;;;3.00;3.00;;;;;;;;2;234071068;234071068;-83
